Oldham, United Kingdom
Current Conditions -  °F | °C
As of 2:50 PM on Friday 19 Dec 2014 (Local Time) from EGCC Reporting Station
Light Rain Light Rain  
Wind Chill: 34°   Ceiling: 3800
Heat Index: 43°   Visibility: 6mi
Dew Point: 39°   Wind: 20mph
Humidity: 87%   Direction: 260°W
Pressure: 29.94"   Gusts: NA
Location:  53.54°N, 2.12°W
Report Text: EGCC 191450Z 26017KT 9999 -RA FEW025CB SCT032 BKN038 06/04 Q1014
Loading
Personal Weather Stations






























Interactive Weather Map New forecast layout! Learn more

10-Day Weather Forecast

Advertisements
Track Severe Weather on mobile